createdAt,value
2018-01-18T00:02:26.620Z,68.43
2018-01-18T00:04:54.318Z,68.61
2018-01-18T00:07:22.463Z,68.29
2018-01-18T00:09:50.578Z,67.85
2018-01-18T00:12:18.253Z,67.77
2018-01-18T00:14:46.783Z,67.45
2018-01-18T00:17:15.643Z,67.35
2018-01-18T00:19:43.358Z,67.51
2018-01-18T00:22:11.415Z,67.54
2018-01-18T00:24:39.414Z,67.13
2018-01-18T00:27:07.536Z,67.10
2018-01-18T00:29:36.287Z,66.93
2018-01-18T00:32:04.886Z,66.78
2018-01-18T00:34:32.496Z,66.76
2018-01-18T00:37:00.549Z,66.58
2018-01-18T00:39:28.426Z,66.68
2018-01-18T00:41:56.584Z,66.06
2018-01-18T00:44:25.218Z,65.86
2018-01-18T00:46:52.912Z,65.55
2018-01-18T00:49:20.715Z,65.40
2018-01-18T00:51:50.235Z,64.80
2018-01-18T00:54:18.014Z,64.52
2018-01-18T00:56:46.093Z,64.02
2018-01-18T00:59:14.605Z,63.82
2018-01-18T01:01:44.376Z,63.28
2018-01-18T01:04:12.040Z,62.94
2018-01-18T01:06:39.752Z,63.30
2018-01-18T01:09:07.486Z,63.35
2018-01-18T01:11:35.483Z,63.07
2018-01-18T01:14:04.628Z,62.65
2018-01-18T01:16:32.502Z,62.08
2018-01-18T01:19:00.113Z,62.01
2018-01-18T01:21:28.589Z,62.14
2018-01-18T01:23:56.325Z,61.70
2018-01-18T01:26:24.666Z,61.74
2018-01-18T01:28:52.715Z,61.92
2018-01-18T01:31:20.454Z,61.57
2018-01-18T01:33:50.238Z,61.46
2018-01-18T01:36:18.089Z,61.53
2018-01-18T01:38:47.040Z,61.36
2018-01-18T01:41:15.119Z,61.29
2018-01-18T01:43:43.087Z,61.65
2018-01-18T01:46:10.816Z,61.37
2018-01-18T01:48:38.667Z,61.47
2018-01-18T01:51:07.249Z,61.61
2018-01-18T01:53:35.228Z,61.65
2018-01-18T01:56:04.131Z,61.17
2018-01-18T01:58:32.502Z,61.12
2018-01-18T02:01:00.246Z,61.03
2018-01-18T02:03:28.265Z,61.14
2018-01-18T02:05:55.886Z,60.83
2018-01-18T02:08:23.788Z,61.08
2018-01-18T02:10:53.295Z,61.31
2018-01-18T02:13:20.871Z,61.16
2018-01-18T02:15:49.430Z,61.04
2018-01-18T02:18:17.399Z,61.32
2018-01-18T02:20:45.415Z,60.88
2018-01-18T02:23:13.569Z,61.16
2018-01-18T02:25:41.225Z,60.75
2018-01-18T02:28:08.851Z,60.99
2018-01-18T02:30:37.351Z,60.93
2018-01-18T02:33:05.099Z,60.38
2018-01-18T02:35:33.776Z,60.62
2018-01-18T02:38:01.481Z,60.00
2018-01-18T02:40:29.338Z,60.54
2018-01-18T02:42:57.205Z,59.75
2018-01-18T02:45:24.972Z,59.76
2018-01-18T02:47:53.009Z,60.22
2018-01-18T02:50:20.656Z,59.78
2018-01-18T02:52:48.361Z,59.43
2018-01-18T02:55:15.945Z,59.28
2018-01-18T02:57:43.602Z,59.35
2018-01-18T03:00:11.306Z,59.28
2018-01-18T03:02:38.874Z,58.70
2018-01-18T03:05:06.581Z,58.72
2018-01-18T03:07:34.341Z,58.97
2018-01-18T03:10:02.185Z,58.86
2018-01-18T03:12:29.957Z,58.84
2018-01-18T03:14:57.915Z,58.97
2018-01-18T03:17:25.696Z,58.95
2018-01-18T03:19:53.298Z,58.23
2018-01-18T03:22:21.037Z,58.69
2018-01-18T03:24:48.922Z,58.69
2018-01-18T03:27:16.785Z,58.53
2018-01-18T03:29:44.458Z,58.24
2018-01-18T03:32:12.208Z,58.58
2018-01-18T03:34:40.115Z,58.34
2018-01-18T03:37:07.760Z,58.56
2018-01-18T03:39:35.499Z,58.63
2018-01-18T03:42:03.152Z,58.75
2018-01-18T03:44:30.981Z,58.62
2018-01-18T03:46:58.797Z,58.56
2018-01-18T03:49:26.410Z,58.58
2018-01-18T03:51:54.398Z,58.54
2018-01-18T03:54:22.230Z,58.13
2018-01-18T03:56:52.348Z,58.40
2018-01-18T03:59:20.287Z,58.37
2018-01-18T04:01:49.594Z,58.38
2018-01-18T04:04:18.508Z,58.65
2018-01-18T04:06:47.106Z,58.47
2018-01-18T04:09:15.745Z,58.89
2018-01-18T04:11:43.447Z,58.87
2018-01-18T04:16:35.877Z,59.18
2018-01-18T04:19:03.668Z,59.17
2018-01-18T04:21:32.443Z,59.31
2018-01-18T04:24:00.709Z,58.98
2018-01-18T04:26:28.574Z,59.20
2018-01-18T04:28:56.293Z,59.36
2018-01-18T04:31:23.969Z,59.19
2018-01-18T04:33:51.662Z,59.10
2018-01-18T04:36:19.287Z,59.02
2018-01-18T04:38:47.372Z,59.61
2018-01-18T04:41:16.312Z,59.99
2018-01-18T04:43:43.936Z,60.60
2018-01-18T04:46:11.664Z,60.87
2018-01-18T04:48:39.294Z,61.41
2018-01-18T04:51:06.843Z,61.25
2018-01-18T04:53:34.532Z,61.55
2018-01-18T04:56:02.113Z,61.86
2018-01-18T04:58:29.802Z,61.79
2018-01-18T05:00:57.508Z,61.63
2018-01-18T05:03:25.996Z,61.76
2018-01-18T05:05:53.648Z,61.68
2018-01-18T05:08:21.777Z,61.64
2018-01-18T05:10:50.947Z,61.50
2018-01-18T05:13:18.671Z,61.23
2018-01-18T05:15:47.090Z,61.15
2018-01-18T05:18:14.774Z,61.00
2018-01-18T05:20:42.450Z,61.37
2018-01-18T05:23:10.287Z,82.84
2018-01-18T05:25:38.378Z,60.77
2018-01-18T05:28:06.880Z,61.53
2018-01-18T05:30:34.554Z,61.24
2018-01-18T05:33:02.945Z,61.14
2018-01-18T05:35:30.862Z,61.31
2018-01-18T05:37:58.776Z,61.39
2018-01-18T05:40:26.478Z,61.65
2018-01-18T05:42:54.732Z,61.37
2018-01-18T05:45:22.436Z,61.18
2018-01-18T05:47:50.059Z,61.14
2018-01-18T05:50:17.878Z,61.48
2018-01-18T05:52:46.079Z,61.46
2018-01-18T05:55:13.983Z,61.52
2018-01-18T05:57:41.954Z,61.49
2018-01-18T06:00:09.824Z,61.43
2018-01-18T06:02:37.402Z,61.79
2018-01-18T06:05:05.379Z,61.56
2018-01-18T06:07:33.221Z,61.38
2018-01-18T06:10:00.886Z,61.55
2018-01-18T06:12:29.671Z,61.39
2018-01-18T06:14:57.529Z,60.96
2018-01-18T06:17:25.698Z,60.97
2018-01-18T06:19:53.299Z,60.44
2018-01-18T06:22:21.130Z,60.67
2018-01-18T06:24:48.945Z,60.53
2018-01-18T06:27:17.928Z,60.56
2018-01-18T06:29:45.812Z,60.50
2018-01-18T06:32:14.422Z,60.50
2018-01-18T06:34:42.072Z,60.28
2018-01-18T06:37:09.702Z,60.01
2018-01-18T06:39:38.523Z,60.29
2018-01-18T06:42:07.616Z,59.78
2018-01-18T06:44:35.294Z,59.96
2018-01-18T06:47:03.890Z,59.30
2018-01-18T06:49:32.479Z,58.68
2018-01-18T06:52:00.267Z,58.49
2018-01-18T06:54:28.878Z,57.34
2018-01-18T06:56:57.218Z,56.77
2018-01-18T06:59:25.137Z,55.06
2018-01-18T07:01:52.834Z,53.64
2018-01-18T07:04:20.569Z,52.55
2018-01-18T07:06:48.333Z,51.77
2018-01-18T07:09:16.117Z,49.52
2018-01-18T07:11:44.064Z,48.03
2018-01-18T07:14:11.690Z,48.33
2018-01-18T07:16:39.715Z,47.85
2018-01-18T07:19:07.350Z,46.78
2018-01-18T07:21:34.912Z,46.25
2018-01-18T07:24:02.982Z,44.79
2018-01-18T07:26:30.651Z,45.62
2018-01-18T07:28:58.418Z,44.59
2018-01-18T07:31:26.192Z,44.41
2018-01-18T07:33:53.851Z,43.12
2018-01-18T07:36:21.449Z,43.29
2018-01-18T07:38:49.839Z,43.84
2018-01-18T07:41:17.553Z,43.53
2018-01-18T07:43:45.245Z,43.71
2018-01-18T07:46:13.101Z,44.29
2018-01-18T07:48:40.705Z,44.63
2018-01-18T07:51:08.527Z,42.80
2018-01-18T07:53:36.322Z,41.42
2018-01-18T07:56:04.126Z,41.82
2018-01-18T07:58:31.801Z,41.69
2018-01-18T08:00:59.552Z,41.96
2018-01-18T08:03:42.075Z,40.72
2018-01-18T08:06:09.881Z,41.30
2018-01-18T08:08:37.670Z,40.53
2018-01-18T08:11:05.846Z,40.69
2018-01-18T08:13:33.518Z,40.74
2018-01-18T08:16:01.920Z,40.30
2018-01-18T08:18:29.589Z,39.89
2018-01-18T08:20:57.308Z,39.35
2018-01-18T08:23:25.060Z,38.48
2018-01-18T08:25:52.674Z,37.87
2018-01-18T08:28:20.814Z,38.56
2018-01-18T08:30:48.866Z,38.36
2018-01-18T08:33:16.570Z,38.03
2018-01-18T08:35:44.230Z,37.96
2018-01-18T08:38:12.257Z,37.62
2018-01-18T08:40:39.931Z,38.08
2018-01-18T08:43:07.748Z,37.00
2018-01-18T08:45:35.644Z,36.56
2018-01-18T08:48:03.505Z,35.88
2018-01-18T08:50:31.101Z,36.26
2018-01-18T08:52:58.779Z,36.55
2018-01-18T08:55:26.454Z,35.65
2018-01-18T08:57:54.971Z,34.84
2018-01-18T09:00:22.768Z,34.70
2018-01-18T09:02:50.446Z,34.81
2018-01-18T09:05:18.094Z,34.78
2018-01-18T09:07:45.861Z,34.52
2018-01-18T09:10:13.665Z,32.78
2018-01-18T09:12:41.335Z,33.63
2018-01-18T09:15:09.097Z,32.62
2018-01-18T09:17:37.122Z,33.80
2018-01-18T09:20:04.822Z,34.99
2018-01-18T09:22:32.558Z,35.40
2018-01-18T09:25:00.701Z,33.99
2018-01-18T09:27:28.349Z,35.55
2018-01-18T09:29:56.447Z,35.26
2018-01-18T09:32:24.212Z,34.15
2018-01-18T09:34:51.808Z,34.56
2018-01-18T09:37:19.618Z,36.50
2018-01-18T09:39:47.394Z,36.08
2018-01-18T09:42:15.000Z,35.35
2018-01-18T09:44:42.639Z,35.87
2018-01-18T09:47:10.359Z,36.64
2018-01-18T09:49:38.025Z,36.26
2018-01-18T09:52:05.992Z,36.75
2018-01-18T09:54:35.912Z,37.68
2018-01-18T09:57:03.518Z,38.19
2018-01-18T09:59:31.133Z,37.85
2018-01-18T10:01:58.884Z,38.01
2018-01-18T10:04:26.758Z,38.20
2018-01-18T10:06:55.118Z,38.26
2018-01-18T10:09:22.910Z,38.02
2018-01-18T10:11:50.654Z,37.19
2018-01-18T10:14:18.272Z,38.37
2018-01-18T10:16:45.935Z,38.82
2018-01-18T10:19:13.537Z,38.96
2018-01-18T10:21:41.063Z,39.60
2018-01-18T10:24:09.353Z,39.05
2018-01-18T10:26:37.130Z,38.76
2018-01-18T10:29:04.853Z,38.78
2018-01-18T10:31:32.565Z,38.65
2018-01-18T10:34:00.176Z,38.58
2018-01-18T10:36:28.325Z,39.64
2018-01-18T10:38:56.109Z,39.56
2018-01-18T10:41:24.282Z,39.58
2018-01-18T10:43:51.925Z,40.44
2018-01-18T10:46:19.602Z,41.27
2018-01-18T10:48:47.347Z,40.33
2018-01-18T10:51:14.991Z,41.91
2018-01-18T10:53:43.716Z,42.91
2018-01-18T10:56:11.385Z,43.35
2018-01-18T10:58:39.055Z,44.16
2018-01-18T11:01:06.797Z,44.24
2018-01-18T11:03:34.634Z,44.51
2018-01-18T11:06:02.290Z,44.54
2018-01-18T11:08:30.022Z,44.85
2018-01-18T11:10:58.690Z,45.11
2018-01-18T11:13:26.346Z,45.75
2018-01-18T11:15:54.214Z,45.90
2018-01-18T11:18:21.855Z,44.03
2018-01-18T11:20:49.554Z,42.87
2018-01-18T11:23:17.330Z,42.65
2018-01-18T11:25:45.855Z,42.22
2018-01-18T11:28:13.547Z,41.32
2018-01-18T11:30:41.268Z,41.07
2018-01-18T11:33:08.901Z,40.86
2018-01-18T11:35:36.531Z,40.22
2018-01-18T11:38:04.320Z,40.43
2018-01-18T11:40:32.096Z,40.43
2018-01-18T11:42:59.658Z,40.24
2018-01-18T11:45:27.416Z,40.02
2018-01-18T11:47:55.535Z,39.83
2018-01-18T11:50:23.198Z,39.92
2018-01-18T11:52:51.673Z,40.28
2018-01-18T11:55:19.300Z,40.00
2018-01-18T11:57:47.052Z,40.76
2018-01-18T12:00:15.137Z,40.49
2018-01-18T12:02:42.783Z,40.46
2018-01-18T12:05:10.451Z,40.86
2018-01-18T12:07:38.151Z,40.80
2018-01-18T12:10:05.840Z,41.49
2018-01-18T12:12:33.677Z,41.79
2018-01-18T12:15:02.348Z,41.28
2018-01-18T12:17:31.128Z,41.54
2018-01-18T12:20:00.615Z,41.55
2018-01-18T12:22:28.307Z,41.97
2018-01-18T12:24:57.437Z,43.35
2018-01-18T12:27:25.042Z,42.72
2018-01-18T12:29:52.805Z,42.16
2018-01-18T12:32:20.671Z,42.88
2018-01-18T12:34:48.280Z,43.43
2018-01-18T12:37:16.809Z,42.87
2018-01-18T12:39:44.604Z,43.19
2018-01-18T12:42:13.558Z,43.16
2018-01-18T12:44:41.202Z,43.55
2018-01-18T12:47:08.925Z,43.77
2018-01-18T12:49:36.607Z,43.93
2018-01-18T12:52:04.314Z,44.03
2018-01-18T12:54:32.510Z,43.88
2018-01-18T12:57:00.221Z,43.84
2018-01-18T12:59:28.865Z,43.83
2018-01-18T13:01:57.057Z,44.56
2018-01-18T13:04:24.769Z,44.59
2018-01-18T13:06:52.954Z,44.11
2018-01-18T13:09:21.246Z,43.95
2018-01-18T13:11:49.619Z,44.02
2018-01-18T13:14:17.793Z,43.80
2018-01-18T13:16:45.537Z,43.86
2018-01-18T13:19:13.292Z,44.07
2018-01-18T13:21:41.978Z,43.99
2018-01-18T13:24:09.905Z,44.30
2018-01-18T13:26:37.541Z,44.04
2018-01-18T13:29:05.130Z,44.44
2018-01-18T13:31:33.122Z,44.19
2018-01-18T13:34:01.046Z,44.37
2018-01-18T13:36:28.973Z,44.61
2018-01-18T13:38:56.810Z,44.89
2018-01-18T13:41:24.798Z,44.32
2018-01-18T13:43:52.449Z,44.47
2018-01-18T13:46:21.270Z,44.38
2018-01-18T13:48:49.185Z,44.17
2018-01-18T13:51:16.862Z,44.26
2018-01-18T13:53:44.578Z,44.66
2018-01-18T13:56:12.406Z,44.61
2018-01-18T13:58:40.482Z,44.54
2018-01-18T14:01:08.549Z,44.74
2018-01-18T14:03:36.534Z,45.13
2018-01-18T14:06:04.746Z,45.30
2018-01-18T14:08:32.674Z,45.71
2018-01-18T14:11:05.203Z,45.37
2018-01-18T14:13:33.303Z,45.53
2018-01-18T14:16:01.487Z,45.74
2018-01-18T14:18:30.154Z,46.60
2018-01-18T14:20:57.876Z,46.73
2018-01-18T14:23:25.594Z,47.36
2018-01-18T14:25:55.660Z,47.56
2018-01-18T14:28:24.170Z,47.91
2018-01-18T14:30:52.014Z,48.09
2018-01-18T14:33:20.778Z,48.84
2018-01-18T14:35:48.509Z,49.21
2018-01-18T14:38:16.902Z,49.35
2018-01-18T14:40:44.616Z,49.26
2018-01-18T14:43:12.325Z,49.57
2018-01-18T14:45:42.621Z,49.44
2018-01-18T14:48:11.862Z,49.71
2018-01-18T14:50:39.786Z,49.86
2018-01-18T14:53:07.502Z,49.65
2018-01-18T14:55:35.492Z,49.63
2018-01-18T14:58:03.946Z,49.88
2018-01-18T15:00:31.959Z,50.34
2018-01-18T15:03:00.362Z,50.27
2018-01-18T15:05:29.041Z,50.19
2018-01-18T15:07:56.912Z,50.12
2018-01-18T15:10:25.015Z,50.38
2018-01-18T15:12:53.335Z,50.06
2018-01-18T15:15:21.664Z,49.84
2018-01-18T15:17:49.393Z,49.70
2018-01-18T15:20:18.233Z,49.54
2018-01-18T15:22:46.012Z,49.77
2018-01-18T15:25:13.679Z,49.89
2018-01-18T15:27:41.512Z,49.75
2018-01-18T15:30:09.378Z,50.00
2018-01-18T15:32:37.386Z,49.73
2018-01-18T15:35:05.028Z,49.34
2018-01-18T15:37:34.178Z,49.43
2018-01-18T15:40:02.281Z,50.90
2018-01-18T15:42:30.039Z,49.14
2018-01-18T15:44:58.634Z,49.88
2018-01-18T15:47:27.035Z,49.67
2018-01-18T15:49:54.577Z,49.99
2018-01-18T15:52:22.695Z,50.37
2018-01-18T15:54:50.801Z,49.56
2018-01-18T15:57:18.796Z,49.60
2018-01-18T16:04:51.295Z,49.46
2018-01-18T16:07:19.050Z,48.88
2018-01-18T16:09:46.792Z,49.31
2018-01-18T16:12:14.586Z,49.17
2018-01-18T16:14:43.083Z,55.33
2018-01-18T16:17:11.120Z,49.32
2018-01-18T16:19:38.777Z,48.97
2018-01-18T16:22:06.583Z,49.76
2018-01-18T16:24:35.261Z,48.96
2018-01-18T16:27:03.598Z,48.76
2018-01-18T16:29:31.511Z,48.73
2018-01-18T16:32:00.117Z,48.62
2018-01-18T16:34:28.061Z,48.74
2018-01-18T16:36:55.988Z,48.72
2018-01-18T16:39:23.733Z,48.51
2018-01-18T16:41:52.251Z,48.59
2018-01-18T16:44:23.288Z,48.66
2018-01-18T16:46:51.861Z,48.53
2018-01-18T16:49:19.655Z,48.52
2018-01-18T16:51:47.731Z,48.80
2018-01-18T16:54:16.011Z,48.79
2018-01-18T16:56:43.773Z,48.99
2018-01-18T16:59:12.604Z,48.70
2018-01-18T17:01:41.864Z,48.80
2018-01-18T17:04:12.204Z,48.61
2018-01-18T17:06:40.840Z,48.54
2018-01-18T17:09:08.605Z,48.29
2018-01-18T17:11:36.344Z,48.00
2018-01-18T17:14:05.752Z,47.93
2018-01-18T17:16:34.709Z,47.81
2018-01-18T17:19:02.473Z,47.66
2018-01-18T17:21:32.595Z,47.56
2018-01-18T17:24:00.501Z,47.23
2018-01-18T17:26:29.195Z,47.27
2018-01-18T17:28:56.982Z,47.10
2018-01-18T17:31:24.899Z,47.04
2018-01-18T17:33:52.849Z,47.82
2018-01-18T17:36:22.051Z,46.69
2018-01-18T17:38:51.140Z,46.55
2018-01-18T17:41:18.980Z,46.38
2018-01-18T17:43:49.023Z,47.21
2018-01-18T17:46:19.706Z,45.58
2018-01-18T17:48:47.435Z,45.47
2018-01-18T17:51:21.896Z,45.33
2018-01-18T17:53:49.834Z,45.06
2018-01-18T17:56:19.057Z,45.19
2018-01-18T17:58:46.649Z,44.96
2018-01-18T18:01:15.496Z,45.12
2018-01-18T18:03:43.215Z,44.90
2018-01-18T18:06:10.894Z,44.72
2018-01-18T18:08:39.063Z,44.38
2018-01-18T18:11:07.534Z,44.34
2018-01-18T18:13:35.472Z,43.87
2018-01-18T18:16:03.783Z,43.66
2018-01-18T18:18:32.415Z,43.87
2018-01-18T18:21:00.816Z,44.33
2018-01-18T18:23:31.318Z,44.14
2018-01-18T18:25:59.329Z,43.37
2018-01-18T18:28:27.319Z,43.11
2018-01-18T18:30:55.882Z,61.05
2018-01-18T18:33:25.711Z,44.87
2018-01-18T18:35:55.881Z,43.83
2018-01-18T18:40:55.494Z,45.52
2018-01-18T18:43:24.264Z,43.58
2018-01-18T18:45:53.180Z,43.45
2018-01-18T18:48:21.187Z,50.63
2018-01-18T18:50:50.068Z,44.78
2018-01-18T18:53:18.430Z,44.20
2018-01-18T18:55:46.330Z,45.75
2018-01-18T18:58:15.408Z,44.76
2018-01-18T19:00:43.188Z,45.64
2018-01-18T19:03:15.061Z,45.26
2018-01-18T19:05:42.748Z,47.77
2018-01-18T19:08:12.127Z,46.20
2018-01-18T19:10:40.094Z,44.92
2018-01-18T19:13:07.729Z,45.67
2018-01-18T19:15:37.757Z,46.71
2018-01-18T19:18:06.441Z,48.45
2018-01-18T19:20:37.536Z,49.69
2018-01-18T19:23:06.564Z,50.44
2018-01-18T19:25:37.144Z,50.78
2018-01-18T19:28:05.643Z,51.76
2018-01-18T19:30:34.334Z,52.69
2018-01-18T19:33:02.060Z,53.08
2018-01-18T19:35:31.445Z,53.19
2018-01-18T19:38:00.163Z,53.48
2018-01-18T19:40:27.880Z,53.93
2018-01-18T19:42:56.598Z,54.14
2018-01-18T19:45:25.047Z,54.17
2018-01-18T19:47:54.351Z,54.31
2018-01-18T19:50:22.570Z,54.27
2018-01-18T19:52:50.509Z,54.75
2018-01-18T19:55:18.569Z,55.01
2018-01-18T19:57:46.270Z,55.07
2018-01-18T20:00:14.776Z,55.31
2018-01-18T20:02:42.471Z,55.31
2018-01-18T20:05:11.842Z,54.58
2018-01-18T20:07:40.446Z,55.32
2018-01-18T20:10:09.352Z,55.14
2018-01-18T20:12:38.002Z,54.66
2018-01-18T20:15:06.837Z,55.17
2018-01-18T20:17:37.118Z,55.58
2018-01-18T20:20:08.889Z,55.48
2018-01-18T20:22:36.859Z,54.68
2018-01-18T20:25:05.674Z,54.71
2018-01-18T20:27:33.407Z,54.93
2018-01-18T20:30:02.067Z,54.55
2018-01-18T20:32:30.311Z,54.38
2018-01-18T20:34:59.008Z,54.75
2018-01-18T20:37:27.691Z,54.30
2018-01-18T20:39:55.326Z,55.02
2018-01-18T20:42:23.887Z,54.96
2018-01-18T20:44:51.521Z,55.80
2018-01-18T20:47:19.201Z,57.86
2018-01-18T20:49:46.949Z,56.01
2018-01-18T20:52:15.069Z,54.58
2018-01-18T20:54:44.261Z,54.69
2018-01-18T20:57:11.867Z,54.48
2018-01-18T20:59:39.468Z,54.82
2018-01-18T21:02:07.168Z,54.37
2018-01-18T21:04:34.830Z,52.54
2018-01-18T21:07:02.495Z,52.52
2018-01-18T21:09:30.200Z,52.20
2018-01-18T21:11:57.977Z,53.69
2018-01-18T21:14:25.776Z,55.49
2018-01-18T21:16:53.516Z,55.09
2018-01-18T21:19:21.165Z,55.14
2018-01-18T21:21:49.218Z,54.97
2018-01-18T21:24:17.080Z,54.75
2018-01-18T21:26:44.792Z,53.35
2018-01-18T21:29:12.445Z,53.23
2018-01-18T21:31:40.098Z,53.14
2018-01-18T21:34:07.908Z,55.16
2018-01-18T21:36:35.552Z,53.22
2018-01-18T21:39:03.232Z,54.30
2018-01-18T21:41:30.871Z,54.83
2018-01-18T21:43:58.470Z,54.25
2018-01-18T21:46:26.863Z,54.33
2018-01-18T21:48:55.780Z,55.01
2018-01-18T21:51:23.422Z,54.97
2018-01-18T21:53:51.094Z,55.82
2018-01-18T21:56:19.399Z,55.27
2018-01-18T21:58:47.424Z,56.01
2018-01-18T22:01:15.067Z,54.97
2018-01-18T22:03:42.652Z,56.68
2018-01-18T22:06:10.431Z,56.47
2018-01-18T22:08:38.133Z,55.51
2018-01-18T22:11:05.721Z,55.93
2018-01-18T22:13:33.353Z,55.81
2018-01-18T22:16:00.941Z,54.81
2018-01-18T22:18:28.544Z,53.87
2018-01-18T22:20:56.130Z,52.88
2018-01-18T22:23:24.552Z,52.27
2018-01-18T22:25:53.225Z,53.81
2018-01-18T22:28:21.056Z,52.77
2018-01-18T22:30:48.700Z,54.03
2018-01-18T22:33:17.249Z,53.98
2018-01-18T22:35:44.835Z,55.69
2018-01-18T22:38:12.472Z,55.22
2018-01-18T22:40:40.123Z,54.49
2018-01-18T22:43:07.733Z,53.60
2018-01-18T22:45:35.420Z,53.91
2018-01-18T22:48:03.041Z,54.88
2018-01-18T22:50:32.105Z,54.72
2018-01-18T22:52:59.721Z,55.10
2018-01-18T22:55:27.294Z,54.65
2018-01-18T22:57:54.884Z,55.43
2018-01-18T23:00:23.056Z,56.06
2018-01-18T23:02:50.721Z,54.71
2018-01-18T23:05:18.335Z,53.80
2018-01-18T23:07:45.934Z,54.39
2018-01-18T23:10:13.642Z,55.00
2018-01-18T23:12:41.310Z,56.91
2018-01-18T23:15:08.988Z,55.58
2018-01-18T23:17:36.654Z,57.19
2018-01-18T23:20:04.357Z,55.92
2018-01-18T23:22:31.998Z,56.64
2018-01-18T23:24:59.701Z,55.82
2018-01-18T23:27:27.335Z,55.74
2018-01-18T23:29:55.020Z,54.11
2018-01-18T23:32:22.985Z,55.27
2018-01-18T23:34:50.633Z,56.25
2018-01-18T23:37:18.210Z,56.82
2018-01-18T23:39:45.823Z,56.81
2018-01-18T23:42:13.477Z,57.53
2018-01-18T23:44:41.147Z,57.46
2018-01-18T23:47:08.822Z,57.97
2018-01-18T23:49:36.579Z,57.41
2018-01-18T23:52:04.225Z,57.62
2018-01-18T23:54:31.885Z,57.21
2018-01-18T23:56:59.522Z,56.98
2018-01-18T23:59:28.094Z,56.67
